Campbell Foss — WDC7754 — position and weather

sailwx.info

Track history (hours):
 
Tides and Currents Weather Stations Pressure Air Temp Water Temp Dewpoint Dewpoint Depression Visibility Wind Speed Wind Dir Waves Ship Positions

Campbell Foss

Owner: Foss Maritime Co., Seattle, WA. More information available from US FCC via Universal Licensing System and Coast Guard Vessel Documentation Center.

Last reported at 2016-Sep-28 01:34 UTC. Time now 2016-Sep-28 01:50 UTC.
Position N 33°45' W 118°13'.

Length 23 m; draft 16 m.

Type: Tug. MMSI: 367076360.

Date/timePositionNaut miles runAvg speedWind from/ knotsBaromVisibWave heightAir tempDewpointWater temp
2016-Sep-28 01:34N 33°45' W 118°13'3 1.4
2016-Sep-27 23:34N 33°44' W 118°16'3 0.1
2016-Sep-26 08:33N 33°46' W 118°16'3 0.4
2016-Sep-26 02:30N 33°46' W 118°13'3 2.8
2016-Sep-26 01:24N 33°45' W 118°17'2 1.6
2016-Sep-26 00:21N 33°46' W 118°15'5 1.9
2016-Sep-25 21:34N 33°41' W 118°13'5 1.3
2016-Sep-25 17:29N 33°45' W 118°16'0 0.2
2016-Sep-25 16:34N 33°45' W 118°16'3 2.7
2016-Sep-25 15:28N 33°44' W 118°13'1 1.4
2016-Sep-25 14:33N 33°45' W 118°13'0 0.2
2016-Sep-25 12:26N 33°46' W 118°13'1 1.4
2016-Sep-25 11:33N 33°46' W 118°15'3 2.7
2016-Sep-25 10:34N 33°44' W 118°16'3 3.1
2016-Sep-25 09:33N 33°45' W 118°13'0 0.0
2016-Sep-25 07:33N 33°45' W 118°13'3 0.5
2016-Sep-25 00:34N 33°43' W 118°16'1 0.6
2016-Sep-24 22:33N 33°43' W 118°15'1 1.1
2016-Sep-24 21:21N 33°44' W 118°16'3 1.9
2016-Sep-24 19:33N 33°46' W 118°13'0 0.0
2016-Sep-24 18:31N 33°46' W 118°13'0 0.0
2016-Sep-24 17:33N 33°46' W 118°13'1 0.7
2016-Sep-24 16:33N 33°45' W 118°13'3 1.5
2016-Sep-24 14:34N 33°45' W 118°16'2 0.8
2016-Sep-24 12:34N 33°44' W 118°16'1 0.3
2016-Sep-24 10:33N 33°43' W 118°16'1 1.5
2016-Sep-24 09:34N 33°45' W 118°16'1 0.2
2016-Sep-24 03:32N 33°46' W 118°16'0 0.0
2016-Sep-24 00:34N 33°46' W 118°16'0 0.0
2016-Sep-23 09:18N 33°46' W 118°16'2 0.1
2016-Sep-22 04:34N 33°46' W 118°14'3 3.2
2016-Sep-22 03:32N 33°43' W 118°16'2 0.8
2016-Sep-22 00:32N 33°46' W 118°15'0 0.1
2016-Sep-21 23:33N 33°46' W 118°15'2 0.1
2016-Sep-20 10:34N 33°46' W 118°13'1 0.3
2016-Sep-20 08:33N 33°45' W 118°13'0 0.0
2016-Sep-20 07:32N 33°45' W 118°13'0 0.5
2016-Sep-20 06:33N 33°46' W 118°13'1 0.4
2016-Sep-20 02:28N 33°44' W 118°13'1 0.4
2016-Sep-19 23:33N 33°44' W 118°12'4 0.9
2016-Sep-19 19:33N 33°46' W 118°16'2 2.0
2016-Sep-19 18:33N 33°46' W 118°13'2 1.1
2016-Sep-19 16:33N 33°45' W 118°16'5 2.3
2016-Sep-19 14:33N 33°44' W 118°11'1 0.8
2016-Sep-19 13:34N 33°44' W 118°11'1 0.8
2016-Sep-19 12:33N 33°44' W 118°11'3 2.8
2016-Sep-19 11:34N 33°45' W 118°13'0 0.0
2016-Sep-19 09:33N 33°45' W 118°13'0 0.0
2016-Sep-19 07:32N 33°45' W 118°13'0 0.5
2016-Sep-19 06:34N 33°46' W 118°13'1 0.2
2016-Sep-19 03:20N 33°46' W 118°13'0 0.0
2016-Sep-19 02:09N 33°46' W 118°13'0 0.0
2016-Sep-19 00:34N 33°46' W 118°13'2 0.3
2016-Sep-18 19:33N 33°45' W 118°13'2 0.5
2016-Sep-18 15:33N 33°43' W 118°14'2 2.4
2016-Sep-18 14:33N 33°45' W 118°13'1 0.2
2016-Sep-18 10:33N 33°45' W 118°12'1 0.8
2016-Sep-18 09:33N 33°45' W 118°13'1 0.2
2016-Sep-18 02:33N 33°46' W 118°13'  
Track history (hours):
 
Tides and Currents Weather Stations Pressure Air Temp Water Temp Dewpoint Dewpoint Depression Visibility Wind Speed Wind Dir Waves Ship Positions

Campbell Foss

Owner: Foss Maritime Co., Seattle, WA. More information available from US FCC via Universal Licensing System and Coast Guard Vessel Documentation Center.

Last reported at 2016-Sep-28 01:34 UTC. Time now 2016-Sep-28 01:50 UTC.
Position N 33°45' W 118°13'.

Length 23 m; draft 16 m.

Type: Tug. MMSI: 367076360.

Date/timePositionNaut miles runAvg speedWind from/ knotsBaromVisibWave heightAir tempDewpointWater temp
2016-Sep-28 01:34N 33°45' W 118°13'3 1.4
2016-Sep-27 23:34N 33°44' W 118°16'3 0.1
2016-Sep-26 08:33N 33°46' W 118°16'3 0.4
2016-Sep-26 02:30N 33°46' W 118°13'3 2.8
2016-Sep-26 01:24N 33°45' W 118°17'2 1.6
2016-Sep-26 00:21N 33°46' W 118°15'5 1.9
2016-Sep-25 21:34N 33°41' W 118°13'5 1.3
2016-Sep-25 17:29N 33°45' W 118°16'0 0.2
2016-Sep-25 16:34N 33°45' W 118°16'3 2.7
2016-Sep-25 15:28N 33°44' W 118°13'1 1.4
2016-Sep-25 14:33N 33°45' W 118°13'0 0.2
2016-Sep-25 12:26N 33°46' W 118°13'1 1.4
2016-Sep-25 11:33N 33°46' W 118°15'3 2.7
2016-Sep-25 10:34N 33°44' W 118°16'3 3.1
2016-Sep-25 09:33N 33°45' W 118°13'0 0.0
2016-Sep-25 07:33N 33°45' W 118°13'3 0.5
2016-Sep-25 00:34N 33°43' W 118°16'1 0.6
2016-Sep-24 22:33N 33°43' W 118°15'1 1.1
2016-Sep-24 21:21N 33°44' W 118°16'3 1.9
2016-Sep-24 19:33N 33°46' W 118°13'0 0.0
2016-Sep-24 18:31N 33°46' W 118°13'0 0.0
2016-Sep-24 17:33N 33°46' W 118°13'1 0.7
2016-Sep-24 16:33N 33°45' W 118°13'3 1.5
2016-Sep-24 14:34N 33°45' W 118°16'2 0.8
2016-Sep-24 12:34N 33°44' W 118°16'1 0.3
2016-Sep-24 10:33N 33°43' W 118°16'1 1.5
2016-Sep-24 09:34N 33°45' W 118°16'1 0.2
2016-Sep-24 03:32N 33°46' W 118°16'0 0.0
2016-Sep-24 00:34N 33°46' W 118°16'0 0.0
2016-Sep-23 09:18N 33°46' W 118°16'2 0.1
2016-Sep-22 04:34N 33°46' W 118°14'3 3.2
2016-Sep-22 03:32N 33°43' W 118°16'2 0.8
2016-Sep-22 00:32N 33°46' W 118°15'0 0.1
2016-Sep-21 23:33N 33°46' W 118°15'2 0.1
2016-Sep-20 10:34N 33°46' W 118°13'1 0.3
2016-Sep-20 08:33N 33°45' W 118°13'0 0.0
2016-Sep-20 07:32N 33°45' W 118°13'0 0.5
2016-Sep-20 06:33N 33°46' W 118°13'1 0.4
2016-Sep-20 02:28N 33°44' W 118°13'1 0.4
2016-Sep-19 23:33N 33°44' W 118°12'4 0.9
2016-Sep-19 19:33N 33°46' W 118°16'2 2.0
2016-Sep-19 18:33N 33°46' W 118°13'2 1.1
2016-Sep-19 16:33N 33°45' W 118°16'5 2.3
2016-Sep-19 14:33N 33°44' W 118°11'1 0.8
2016-Sep-19 13:34N 33°44' W 118°11'1 0.8
2016-Sep-19 12:33N 33°44' W 118°11'3 2.8
2016-Sep-19 11:34N 33°45' W 118°13'0 0.0
2016-Sep-19 09:33N 33°45' W 118°13'0 0.0
2016-Sep-19 07:32N 33°45' W 118°13'0 0.5
2016-Sep-19 06:34N 33°46' W 118°13'1 0.2
2016-Sep-19 03:20N 33°46' W 118°13'0 0.0
2016-Sep-19 02:09N 33°46' W 118°13'0 0.0
2016-Sep-19 00:34N 33°46' W 118°13'2 0.3
2016-Sep-18 19:33N 33°45' W 118°13'2 0.5
2016-Sep-18 15:33N 33°43' W 118°14'2 2.4
2016-Sep-18 14:33N 33°45' W 118°13'1 0.2
2016-Sep-18 10:33N 33°45' W 118°12'1 0.8
2016-Sep-18 09:33N 33°45' W 118°13'1 0.2
2016-Sep-18 02:33N 33°46' W 118°13'  

Dump ship's entire track history